Terminal Aerodrome Forecast
Issued by NWS Rapid City, SD

Home | Current Version | Previous Version | Text Only | Print | Product List | Glossary Off
Versions: 1 2 3 4 5 6 7 8 9 10 11 12 13 14 15 16 17 18 19

360
FTUS43 KUNR 171723
TAFRAP
TAF
KRAP 171723Z 1718/1818 01011KT P6SM SCT250
     FM172100 13009KT P6SM SCT060 SCT200
     FM180300 17011KT P6SM OVC130
     FM180500 18008KT P6SM OVC100 WS020/24045KT
     FM181200 34013KT P6SM OVC100=

USA.gov is the U.S. government's official web portal to all federal, state and local government web resources and services.